Time;durP1;ratioP1;P1;durP2;ratioP2;P2;SDS_P1;SDS_P2;PMS_P1;PMS_P2;Temp;Humidity;BMP_temperature;BMP_pressure;BME280_temperature;BME280_humidity;BME280_pressure;Samples;Min_cycle;Max_cycle;Signal;HPM_P1;HPM_P2
2022/09/14 00:00:21;;;;;;;6.10;3.58;;;;;;;15.51;49.37;94852.59;5006952;28;20589;-69
2022/09/14 00:02:47;;;;;;;5.55;3.17;;;;;;;15.56;48.61;94848.38;5007475;28;20215;-69
2022/09/14 00:05:13;;;;;;;3.25;2.50;;;;;;;15.48;48.85;94855.63;5007931;28;20576;-69
2022/09/14 00:07:38;;;;;;;2.90;2.70;;;;;;;15.13;49.56;94858.88;5010226;28;20223;-69
2022/09/14 00:10:04;;;;;;;3.70;3.13;;;;;;;15.02;50.38;94861.13;5011279;28;20219;-69
2022/09/14 00:12:30;;;;;;;3.30;3.00;;;;;;;15.02;50.42;94847.88;5011476;28;20219;-69
2022/09/14 00:14:55;;;;;;;3.38;2.95;;;;;;;15.21;50.16;94850.00;5011861;28;20218;-69
2022/09/14 00:17:21;;;;;;;3.10;2.80;;;;;;;15.22;50.40;94862.22;5009221;28;20223;-70
2022/09/14 00:19:46;;;;;;;3.53;2.95;;;;;;;15.22;50.39;94856.94;5004454;28;20307;-69
2022/09/14 00:22:12;;;;;;;3.20;2.90;;;;;;;15.09;50.72;94856.75;5011430;28;20656;-70
2022/09/14 00:24:38;;;;;;;5.40;3.20;;;;;;;15.04;50.83;94864.41;5006287;28;20737;-70
2022/09/14 00:27:03;;;;;;;3.92;3.17;;;;;;;15.09;50.61;94865.50;5010811;28;20249;-71
2022/09/14 00:29:29;;;;;;;3.38;3.08;;;;;;;15.00;51.09;94854.19;5009270;28;20708;-70
2022/09/14 00:31:55;;;;;;;4.18;3.28;;;;;;;15.06;51.12;94863.25;5009857;28;20258;-70
2022/09/14 00:34:21;;;;;;;3.38;3.00;;;;;;;15.03;50.96;94855.66;5017258;28;20246;-70
2022/09/14 00:36:49;;;;;;;3.60;3.17;;;;;;;14.96;51.34;94852.09;5019215;28;20220;-70
2022/09/14 00:39:16;;;;;;;3.70;2.90;;;;;;;14.78;51.86;94850.66;5026164;28;20202;-70
2022/09/14 00:41:44;;;;;;;3.40;3.10;;;;;;;14.94;51.72;94856.75;5007904;28;20206;-69
2022/09/14 00:44:10;;;;;;;3.40;3.10;;;;;;;14.97;51.51;94862.50;5008477;28;20227;-70
2022/09/14 00:46:44;;;;;;;3.45;3.15;;;;;;;14.95;51.17;94866.34;5005498;28;20250;-70
2022/09/14 00:49:18;;;;;;;5.20;3.40;;;;;;;14.92;51.02;94864.88;4994615;28;20281;-70
2022/09/14 00:51:48;;;;;;;4.00;3.42;;;;;;;14.80;51.66;94863.69;5002718;28;20226;-70
2022/09/14 00:54:14;;;;;;;3.47;3.05;;;;;;;14.75;51.78;94868.69;5009354;28;20210;-70
2022/09/14 00:56:40;;;;;;;4.68;3.17;;;;;;;14.71;51.74;94867.44;5002173;28;20245;-70
2022/09/14 00:59:12;;;;;;;4.68;3.10;;;;;;;14.71;51.79;94872.72;5021810;28;20248;-70
2022/09/14 01:01:37;;;;;;;3.28;3.00;;;;;;;14.59;52.00;94872.31;5009072;28;20227;-67
2022/09/14 01:04:03;;;;;;;3.40;2.70;;;;;;;14.62;52.16;94877.28;5007288;28;20234;-66
2022/09/14 01:06:48;;;;;;;3.45;3.20;;;;;;;14.60;51.94;94883.75;5009944;28;20214;-66
2022/09/14 01:09:16;;;;;;;4.60;3.33;;;;;;;14.53;52.15;94873.03;5002452;28;20275;-67
2022/09/14 01:11:41;;;;;;;4.35;3.35;;;;;;;14.53;52.24;94878.34;5004709;28;20199;-67
2022/09/14 01:14:25;;;;;;;3.50;3.20;;;;;;;14.59;51.85;94872.31;5009799;28;20230;-67
2022/09/14 01:17:20;;;;;;;2.88;2.67;;;;;;;14.50;52.09;94879.47;4997693;28;20638;-67
2022/09/14 01:19:51;;;;;;;3.90;2.80;;;;;;;14.43;52.33;94878.53;5001423;28;20224;-66
2022/09/14 01:22:22;;;;;;;3.47;3.20;;;;;;;14.61;51.83;94874.78;5000727;28;20243;-65
2022/09/14 01:24:54;;;;;;;3.30;3.00;;;;;;;14.68;51.40;94867.78;4998987;28;20245;-66
2022/09/14 01:27:40;;;;;;;2.92;2.72;;;;;;;14.49;52.20;94877.84;5001720;28;20242;-65
2022/09/14 01:30:14;;;;;;;3.10;2.90;;;;;;;14.38;52.66;94870.34;5000167;28;20270;-66
2022/09/14 01:32:52;;;;;;;3.38;3.08;;;;;;;14.36;52.79;94872.34;5002018;28;20245;-66
2022/09/14 01:35:58;;;;;;;3.20;2.90;;;;;;;14.42;52.35;94871.63;5003426;28;20223;-66
2022/09/14 01:38:33;;;;;;;3.65;3.20;;;;;;;14.38;52.62;94870.34;4958821;28;20261;-66
2022/09/14 01:41:02;;;;;;;3.10;2.80;;;;;;;14.30;52.71;94858.00;4952956;28;20226;-66
2022/09/14 01:43:31;;;;;;;3.45;3.15;;;;;;;14.24;53.10;94869.28;4952446;28;20475;-66
2022/09/14 01:46:03;;;;;;;3.13;2.92;;;;;;;14.22;53.28;94865.16;4954858;28;20991;-66
2022/09/14 01:48:38;;;;;;;3.13;2.92;;;;;;;14.25;53.11;94859.56;4973536;28;20366;-67
2022/09/14 01:51:09;;;;;;;3.55;3.17;;;;;;;14.21;53.47;94867.00;4956556;28;20901;-66
2022/09/14 01:53:48;;;;;;;4.55;3.13;;;;;;;14.21;53.46;94876.75;4942456;28;20216;-67
2022/09/14 01:56:22;;;;;;;3.60;3.30;;;;;;;14.20;53.59;94875.94;4953381;28;20228;-66
2022/09/14 01:59:06;;;;;;;5.47;3.40;;;;;;;14.16;54.03;94873.81;4942922;28;20228;-66
2022/09/14 02:01:45;;;;;;;3.28;3.00;;;;;;;13.98;54.73;94867.03;4952544;28;20307;-66
2022/09/14 02:04:16;;;;;;;3.63;3.20;;;;;;;14.16;54.45;94865.88;4965349;28;20235;-65
2022/09/14 02:06:47;;;;;;;3.75;3.08;;;;;;;14.22;54.33;94866.03;4945925;28;20251;-66
2022/09/14 02:09:18;;;;;;;3.75;3.45;;;;;;;14.17;54.64;94867.56;4963995;28;20215;-66
2022/09/14 02:11:45;;;;;;;4.22;3.58;;;;;;;14.13;54.85;94867.88;4954023;28;20216;-68
2022/09/14 02:14:11;;;;;;;3.45;3.15;;;;;;;14.10;54.86;94868.25;5005917;28;20875;-67
2022/09/14 02:16:36;;;;;;;3.53;3.22;;;;;;;13.98;55.18;94864.38;4998413;28;20226;-68
2022/09/14 02:19:03;;;;;;;6.15;3.78;;;;;;;13.87;55.97;94881.47;4998187;28;20219;-67
2022/09/14 02:21:31;;;;;;;4.65;3.80;;;;;;;14.02;55.70;94872.78;5004655;28;20746;-67
2022/09/14 02:24:00;;;;;;;5.75;4.00;;;;;;;14.09;55.77;94873.72;5006891;28;20206;-67
2022/09/14 02:26:27;;;;;;;6.47;3.78;;;;;;;14.02;55.87;94870.94;5007489;28;20230;-65
2022/09/14 02:28:55;;;;;;;4.32;3.90;;;;;;;13.92;56.38;94861.59;5002106;28;20238;-66
2022/09/14 02:31:39;;;;;;;5.20;3.65;;;;;;;13.98;56.24;94863.53;5017200;28;20211;-65
2022/09/14 02:34:09;;;;;;;5.40;4.00;;;;;;;13.89;56.67;94874.16;5008848;28;20299;-66
2022/09/14 02:36:50;;;;;;;4.82;3.60;;;;;;;13.89;56.74;94870.72;5005927;28;20776;-66
2022/09/14 02:39:32;;;;;;;4.82;4.13;;;;;;;13.96;56.98;94871.66;5001878;28;20234;-66
2022/09/14 02:42:19;;;;;;;4.72;4.03;;;;;;;13.92;56.92;94877.47;5008833;28;20641;-66
2022/09/14 02:45:23;;;;;;;6.82;4.68;;;;;;;13.82;56.94;94882.97;4998998;28;20314;-66
2022/09/14 02:48:06;;;;;;;6.65;4.28;;;;;;;13.87;57.34;94876.19;4953717;28;20415;-66
2022/09/14 02:50:53;;;;;;;4.88;4.28;;;;;;;13.65;58.46;94882.25;4949496;28;20759;-66
2022/09/14 02:53:43;;;;;;;7.00;4.38;;;;;;;13.65;58.63;94874.31;4949447;28;20256;-66
2022/09/14 02:56:11;;;;;;;6.15;4.68;;;;;;;13.79;58.61;94880.69;4946518;28;20228;-66
2022/09/14 02:58:39;;;;;;;7.30;4.60;;;;;;;13.94;57.82;94878.94;4968914;28;20243;-66
2022/09/14 03:01:06;;;;;;;4.68;4.28;;;;;;;13.55;59.18;94873.72;4949640;28;20322;-65
2022/09/14 03:03:32;;;;;;;6.70;5.13;;;;;;;13.52;58.85;94879.34;4949616;28;20235;-65
2022/09/14 03:05:57;;;;;;;6.72;4.88;;;;;;;13.53;59.17;94868.63;4952510;28;20216;-65
2022/09/14 03:08:24;;;;;;;7.82;4.75;;;;;;;13.72;58.26;94877.09;4963432;28;20314;-65
2022/09/14 03:10:50;;;;;;;7.90;4.80;;;;;;;13.46;59.14;94886.97;4945190;28;20232;-66
2022/09/14 03:13:16;;;;;;;5.38;4.88;;;;;;;13.61;59.07;94873.03;4968152;28;20223;-65
2022/09/14 03:15:41;;;;;;;8.07;5.07;;;;;;;13.61;59.16;94873.84;4962526;28;20264;-66
2022/09/14 03:18:07;;;;;;;5.95;4.70;;;;;;;13.44;59.73;94869.66;4960806;28;20218;-66
2022/09/14 03:20:33;;;;;;;9.48;5.72;;;;;;;13.59;59.32;94878.50;5007833;28;20265;-66
2022/09/14 03:22:59;;;;;;;12.65;5.43;;;;;;;13.48;59.38;94888.63;5008229;28;20648;-65
2022/09/14 03:25:26;;;;;;;10.80;5.85;;;;;;;13.52;59.59;94888.09;5002780;28;20249;-66
2022/09/14 03:27:55;;;;;;;14.20;5.40;;;;;;;13.46;59.40;94881.69;5007606;28;20265;-65
2022/09/14 03:30:21;;;;;;;9.02;5.40;;;;;;;13.46;59.57;94881.69;5005088;28;20217;-65
2022/09/14 03:32:47;;;;;;;8.25;4.88;;;;;;;13.58;59.03;94878.66;5006389;28;20207;-65
2022/09/14 03:35:13;;;;;;;6.05;4.78;;;;;;;13.48;59.36;94888.63;4997528;28;20226;-65
2022/09/14 03:37:41;;;;;;;7.30;5.25;;;;;;;13.50;59.45;94886.63;5010129;28;20276;-66
2022/09/14 03:40:08;;;;;;;10.55;4.78;;;;;;;13.46;59.22;94879.03;5004240;28;20226;-66
2022/09/14 03:42:34;;;;;;;7.97;5.15;;;;;;;13.30;59.97;94880.94;5008390;28;20286;-66
2022/09/14 03:44:59;;;;;;;5.55;4.85;;;;;;;13.37;59.82;94876.63;5000998;28;20204;-66
2022/09/14 03:47:25;;;;;;;5.18;4.22;;;;;;;13.35;60.10;94868.06;5009014;28;20222;-66
2022/09/14 03:49:51;;;;;;;7.15;5.28;;;;;;;13.36;60.20;94874.97;5014279;28;20569;-66
2022/09/14 03:52:17;;;;;;;9.05;5.43;;;;;;;13.34;60.01;94877.81;5001527;28;20220;-66
2022/09/14 03:54:42;;;;;;;6.57;5.47;;;;;;;13.28;60.55;94888.22;5011068;28;20226;-66
2022/09/14 03:57:08;;;;;;;7.82;5.47;;;;;;;13.29;60.45;94889.88;5010083;28;20198;-66
2022/09/14 03:59:34;;;;;;;6.95;4.80;;;;;;;13.14;60.91;94887.91;5011070;28;20758;-66
2022/09/14 04:02:00;;;;;;;6.10;4.95;;;;;;;13.21;61.07;94886.22;5007736;28;20226;-66
2022/09/14 04:04:26;;;;;;;5.97;5.38;;;;;;;13.01;61.33;94885.78;5010292;28;20230;-66
2022/09/14 04:06:51;;;;;;;8.05;5.43;;;;;;;13.16;60.86;94888.56;5011554;28;20936;-66
2022/09/14 04:09:18;;;;;;;7.65;4.97;;;;;;;13.15;61.06;94888.72;5011602;28;20216;-66
2022/09/14 04:11:44;;;;;;;6.75;5.35;;;;;;;13.13;61.25;94875.69;4993642;28;20202;-66
2022/09/14 04:14:10;;;;;;;7.80;5.22;;;;;;;13.23;60.77;94886.03;5017685;28;20279;-66
2022/09/14 04:16:36;;;;;;;9.27;5.22;;;;;;;13.19;60.84;94892.69;5000308;28;20254;-66
2022/09/14 04:19:02;;;;;;;6.88;5.45;;;;;;;13.12;61.04;94884.59;5005724;28;20257;-66
2022/09/14 04:21:27;;;;;;;10.18;5.88;;;;;;;13.07;61.24;94884.31;5006910;28;20667;-66
2022/09/14 04:23:55;;;;;;;13.73;6.43;;;;;;;13.09;61.23;94886.75;5022173;28;20241;-66
2022/09/14 04:26:23;;;;;;;10.77;5.95;;;;;;;13.27;60.60;94879.47;5011473;28;20211;-66
2022/09/14 04:28:48;;;;;;;6.70;5.20;;;;;;;13.28;60.48;94883.75;5010299;28;20231;-66
2022/09/14 04:31:14;;;;;;;9.95;5.72;;;;;;;12.96;61.53;94889.94;5008005;28;20292;-66
2022/09/14 04:33:44;;;;;;;10.85;5.60;;;;;;;13.02;61.71;94879.53;5003556;28;20223;-67
2022/09/14 04:36:15;;;;;;;13.82;6.20;;;;;;;13.28;60.89;94880.28;5009261;28;20242;-67
2022/09/14 04:38:42;;;;;;;9.38;5.78;;;;;;;13.31;60.22;94882.59;5011263;28;20264;-67
2022/09/14 04:41:09;;;;;;;9.85;5.32;;;;;;;13.27;60.43;94892.66;5008094;28;20219;-67
2022/09/14 04:43:35;;;;;;;14.90;6.90;;;;;;;13.39;60.22;94898.38;5010428;28;20288;-67
2022/09/14 04:46:06;;;;;;;7.50;5.57;;;;;;;13.40;59.69;94890.31;5000285;28;20215;-67
2022/09/14 04:48:34;;;;;;;8.30;5.18;;;;;;;13.43;59.87;94895.25;4998471;28;20223;-67
2022/09/14 04:51:08;;;;;;;6.95;6.40;;;;;;;13.09;61.35;94906.06;5007264;28;20207;-67
2022/09/14 04:53:35;;;;;;;6.65;6.03;;;;;;;13.17;61.32;94898.09;5021752;28;20223;-67
2022/09/14 04:56:03;;;;;;;6.70;5.78;;;;;;;12.47;63.36;94901.41;5008880;28;20300;-67
2022/09/14 04:58:29;;;;;;;8.25;5.38;;;;;;;12.89;62.83;94900.34;5008504;28;20223;-66
2022/09/14 05:01:03;;;;;;;7.68;5.93;;;;;;;13.29;61.37;94911.00;5016661;28;20222;-67
2022/09/14 05:03:28;;;;;;;6.80;5.55;;;;;;;13.34;61.16;94911.28;5003137;28;20282;-67
2022/09/14 05:05:53;;;;;;;7.40;5.63;;;;;;;13.28;61.58;94922.53;5002036;28;20211;-67
2022/09/14 05:08:19;;;;;;;6.32;5.72;;;;;;;13.13;61.56;94910.03;5005941;28;20223;-67
2022/09/14 05:10:44;;;;;;;7.40;6.20;;;;;;;12.98;62.52;94914.34;5006637;28;20310;-67
2022/09/14 05:13:10;;;;;;;6.50;5.93;;;;;;;13.45;60.63;94921.50;4999701;28;20227;-67
2022/09/14 05:15:35;;;;;;;8.95;6.10;;;;;;;13.19;61.64;94922.53;5009658;28;20218;-67
2022/09/14 05:18:02;;;;;;;6.45;5.95;;;;;;;13.44;60.80;94912.75;5010156;28;20586;-67
2022/09/14 05:20:28;;;;;;;11.52;6.30;;;;;;;13.28;61.19;94919.91;5006184;28;20246;-67
2022/09/14 05:22:53;;;;;;;8.32;6.57;;;;;;;13.48;60.68;94921.16;5017611;28;20708;-67
2022/09/14 05:25:18;;;;;;;8.10;6.50;;;;;;;13.63;60.35;94919.44;5018248;28;20223;-67
2022/09/14 05:27:44;;;;;;;7.47;6.30;;;;;;;13.62;60.48;94925.69;5012565;28;20232;-68
2022/09/14 05:30:10;;;;;;;7.65;6.82;;;;;;;13.36;61.59;94928.59;5008635;28;20212;-66
2022/09/14 05:32:35;;;;;;;9.55;6.72;;;;;;;13.68;60.74;94930.31;5022082;28;20199;-66
2022/09/14 05:35:01;;;;;;;8.95;7.22;;;;;;;13.75;60.51;94930.44;5008755;28;20223;-66
2022/09/14 05:37:26;;;;;;;12.13;8.93;;;;;;;13.91;60.12;94929.50;5008173;28;20218;-66
2022/09/14 05:39:52;;;;;;;8.05;7.10;;;;;;;14.05;59.69;94931.41;5002990;28;20222;-66
2022/09/14 05:42:17;;;;;;;11.60;8.35;;;;;;;13.95;59.80;94937.91;5002307;28;20302;-66
2022/09/14 05:44:43;;;;;;;11.65;8.43;;;;;;;13.64;61.23;94939.56;5004338;28;20213;-66
2022/09/14 05:47:09;;;;;;;9.30;7.85;;;;;;;13.85;60.41;94932.84;5021459;28;20269;-66
2022/09/14 05:49:34;;;;;;;10.73;8.30;;;;;;;14.15;59.59;94941.75;5007948;28;20227;-66
2022/09/14 05:52:00;;;;;;;11.75;8.20;;;;;;;14.04;59.70;94939.53;5018432;28;20226;-66
2022/09/14 05:54:25;;;;;;;11.23;8.73;;;;;;;14.17;59.13;94937.13;5008461;28;20230;-66
2022/09/14 05:56:51;;;;;;;18.15;9.63;;;;;;;14.27;58.90;94942.16;5006987;28;20294;-66
2022/09/14 05:59:16;;;;;;;13.20;9.25;;;;;;;14.33;58.53;94949.41;5009417;28;20223;-65
2022/09/14 06:01:42;;;;;;;13.05;9.43;;;;;;;14.38;58.23;94952.34;5003841;28;20216;-66
2022/09/14 06:04:09;;;;;;;12.13;9.88;;;;;;;14.50;57.63;94950.09;4999787;28;20227;-66
2022/09/14 06:06:34;;;;;;;11.02;8.70;;;;;;;14.42;57.35;94953.63;5007709;28;20229;-66
2022/09/14 06:09:00;;;;;;;10.43;8.80;;;;;;;14.60;56.59;94960.47;5009862;28;20202;-70
2022/09/14 06:11:29;;;;;;;15.65;8.60;;;;;;;14.76;56.13;94949.75;5017585;28;20719;-69
2022/09/14 06:13:55;;;;;;;9.35;8.50;;;;;;;14.93;55.78;94950.41;5003919;28;20724;-69
2022/09/14 06:16:22;;;;;;;7.80;6.95;;;;;;;14.97;54.94;94938.47;5003500;28;20310;-66
2022/09/14 06:18:48;;;;;;;7.47;5.15;;;;;;;14.89;54.10;94942.03;5007141;28;20233;-66
2022/09/14 06:21:15;;;;;;;6.35;5.75;;;;;;;15.15;53.69;94946.88;5014561;28;20269;-66
2022/09/14 06:23:41;;;;;;;6.97;6.28;;;;;;;15.06;53.70;94945.31;5006393;28;20294;-66
2022/09/14 06:26:07;;;;;;;6.95;6.25;;;;;;;15.14;53.52;94939.13;5007470;28;20219;-71
2022/09/14 06:28:34;;;;;;;8.30;7.03;;;;;;;15.11;53.48;94926.25;5009497;28;20249;-71
2022/09/14 06:31:00;;;;;;;8.52;6.60;;;;;;;15.22;53.35;94936.38;5009226;28;20215;-71
2022/09/14 06:33:25;;;;;;;8.40;6.30;;;;;;;15.13;54.49;94929.53;5013142;28;20237;-66
2022/09/14 06:35:55;;;;;;;7.07;6.38;;;;;;;15.41;53.59;94935.03;5005306;28;20241;-70
2022/09/14 06:38:21;;;;;;;11.63;5.90;;;;;;;15.48;53.59;94929.81;4997181;28;20226;-70
2022/09/14 06:40:55;;;;;;;8.13;6.50;;;;;;;15.67;52.66;94934.53;5017215;28;20227;-66
2022/09/14 06:43:22;;;;;;;7.22;6.00;;;;;;;15.67;52.38;94931.91;5007169;28;20235;-66
2022/09/14 06:46:17;;;;;;;9.40;5.60;;;;;;;15.75;52.13;94938.97;5020366;28;20727;-66
2022/09/14 06:48:51;;;;;;;6.97;5.38;;;;;;;15.82;52.04;94938.03;5005955;28;20215;-66
2022/09/14 06:51:26;;;;;;;8.07;5.57;;;;;;;15.94;51.71;94937.53;5012489;28;20219;-70
2022/09/14 06:53:52;;;;;;;7.10;6.07;;;;;;;15.85;51.75;94948.25;5003800;28;20202;-66
2022/09/14 06:56:19;;;;;;;8.60;5.72;;;;;;;15.83;51.79;94944.16;5002038;28;20317;-66
2022/09/14 06:58:44;;;;;;;7.60;6.55;;;;;;;16.00;51.29;94940.25;5003569;28;20227;-70
2022/09/14 07:01:13;;;;;;;7.55;5.28;;;;;;;16.01;51.72;94951.69;5008655;28;20271;-71
2022/09/14 07:03:39;;;;;;;6.90;6.30;;;;;;;16.13;50.60;94944.88;5005583;28;20227;-70
2022/09/14 07:06:11;;;;;;;6.68;5.90;;;;;;;15.89;51.44;94946.06;4998023;28;20731;-71
2022/09/14 07:08:37;;;;;;;6.05;5.53;;;;;;;16.09;50.68;94952.41;5000029;28;20219;-71
2022/09/14 07:11:04;;;;;;;8.20;5.85;;;;;;;16.12;50.62;94947.72;5001975;28;20222;-70
2022/09/14 07:13:31;;;;;;;8.05;6.22;;;;;;;16.16;51.26;94944.50;5010392;28;20226;-71
2022/09/14 07:15:56;;;;;;;9.02;5.75;;;;;;;16.21;51.12;94934.16;5020161;28;21244;-72
2022/09/14 07:18:26;;;;;;;9.07;5.85;;;;;;;16.39;50.50;94932.91;4998197;28;20202;-71
2022/09/14 07:20:52;;;;;;;7.15;5.75;;;;;;;16.41;50.21;94926.41;5012726;28;20207;-66
2022/09/14 07:23:17;;;;;;;5.82;5.22;;;;;;;16.54;49.67;94931.00;5010149;28;20225;-67
2022/09/14 07:25:42;;;;;;;7.25;6.25;;;;;;;16.53;50.40;94934.69;5009610;28;20241;-71
2022/09/14 07:28:08;;;;;;;6.45;5.85;;;;;;;16.61;49.70;94931.88;5010671;28;21003;-71
2022/09/14 07:30:36;;;;;;;10.45;6.05;;;;;;;16.72;49.33;94939.31;5010612;28;20234;-71
2022/09/14 07:33:02;;;;;;;7.03;5.97;;;;;;;16.82;49.13;94932.91;5003200;28;20199;-71
2022/09/14 07:35:27;;;;;;;6.85;6.05;;;;;;;16.77;48.83;94930.81;5009435;28;20233;-71
2022/09/14 07:37:53;;;;;;;9.90;6.35;;;;;;;16.87;48.76;94926.00;4997462;28;20228;-71
2022/09/14 07:40:21;;;;;;;6.80;5.20;;;;;;;17.01;48.62;94913.63;5012399;28;20219;-71
2022/09/14 07:42:51;;;;;;;5.68;4.95;;;;;;;17.06;47.83;94916.53;5009886;28;20230;-71
2022/09/14 07:45:16;;;;;;;7.97;5.00;;;;;;;16.85;48.44;94921.91;5008992;28;20208;-71
2022/09/14 07:47:42;;;;;;;6.13;5.55;;;;;;;17.01;48.77;94921.63;5008055;28;20277;-71
2022/09/14 07:50:08;;;;;;;6.68;5.70;;;;;;;17.12;48.44;94922.91;5010409;28;20727;-71
2022/09/14 07:52:33;;;;;;;5.85;4.93;;;;;;;17.19;48.43;94926.44;5009725;28;20242;-71
2022/09/14 07:54:59;;;;;;;7.13;5.20;;;;;;;17.27;48.01;94922.78;5008974;28;20223;-70
2022/09/14 07:57:24;;;;;;;6.07;4.32;;;;;;;17.35;47.26;94922.66;5009135;28;20227;-70
2022/09/14 07:59:50;;;;;;;6.40;4.38;;;;;;;17.41;47.01;94921.88;5012075;28;20210;-70
2022/09/14 08:02:15;;;;;;;8.20;4.80;;;;;;;17.46;47.43;94924.75;5008853;28;20227;-70
2022/09/14 08:04:41;;;;;;;7.25;4.65;;;;;;;17.54;47.05;94926.44;5009642;28;20273;-71
2022/09/14 08:07:07;;;;;;;6.13;4.75;;;;;;;17.55;47.17;94928.06;5011368;28;20219;-71
2022/09/14 08:09:32;;;;;;;7.45;5.10;;;;;;;17.61;47.19;94935.25;5003644;28;20242;-71
2022/09/14 08:11:58;;;;;;;5.28;4.75;;;;;;;17.73;47.09;94925.69;5011619;28;20272;-72
2022/09/14 08:14:24;;;;;;;5.88;4.93;;;;;;;17.84;46.80;94922.50;5018099;28;20246;-72
2022/09/14 08:16:49;;;;;;;6.15;4.85;;;;;;;17.88;46.10;94928.22;5011134;28;20229;-71
2022/09/14 08:19:17;;;;;;;9.27;5.07;;;;;;;17.85;46.56;94924.16;5007680;28;20223;-72
2022/09/14 08:21:43;;;;;;;6.75;4.43;;;;;;;17.88;46.63;94914.94;5005963;28;20643;-71
2022/09/14 08:24:12;;;;;;;5.43;4.90;;;;;;;17.97;46.52;94918.25;5005056;28;20211;-71
2022/09/14 08:26:39;;;;;;;6.88;4.90;;;;;;;18.00;46.04;94905.34;5023037;28;20215;-71
2022/09/14 08:29:06;;;;;;;9.02;4.63;;;;;;;18.08;45.99;94907.03;5002394;28;20262;-71
2022/09/14 08:31:35;;;;;;;6.07;4.75;;;;;;;18.14;46.14;94914.19;5011394;28;20269;-71
2022/09/14 08:34:02;;;;;;;8.68;4.63;;;;;;;18.27;45.63;94905.44;5008738;28;20253;-71
2022/09/14 08:36:35;;;;;;;8.35;4.47;;;;;;;18.27;45.96;94916.88;4998341;28;20288;-72
2022/09/14 08:39:02;;;;;;;7.22;5.13;;;;;;;18.39;46.26;94914.47;5007629;28;20250;-71
2022/09/14 08:41:43;;;;;;;5.93;4.35;;;;;;;18.56;46.00;94917.56;5008657;28;20227;-72
2022/09/14 08:44:23;;;;;;;6.32;5.03;;;;;;;18.51;45.89;94923.47;5001038;28;20910;-72
2022/09/14 08:47:14;;;;;;;9.00;4.93;;;;;;;18.55;45.71;94918.59;4999558;28;20257;-71
2022/09/14 08:50:04;;;;;;;8.50;5.07;;;;;;;18.65;45.39;94912.84;5000135;28;20621;-70
2022/09/14 08:52:39;;;;;;;6.05;4.68;;;;;;;18.66;45.52;94909.97;5007509;28;20285;-71
2022/09/14 08:55:23;;;;;;;8.35;4.80;;;;;;;18.70;45.22;94907.72;5003806;28;20305;-71
2022/09/14 08:58:11;;;;;;;5.65;4.63;;;;;;;18.78;45.09;94906.72;5008952;28;20810;-73
2022/09/14 09:00:44;;;;;;;6.85;4.32;;;;;;;18.95;44.24;94910.59;4986585;28;20345;-70
2022/09/14 09:03:47;;;;;;;5.22;4.40;;;;;;;19.07;43.91;94903.63;4972198;28;20230;-72
2022/09/14 09:06:30;;;;;;;6.00;4.38;;;;;;;19.11;43.46;94896.03;4968102;28;20253;-72
2022/09/14 09:09:15;;;;;;;5.07;4.10;;;;;;;19.23;43.53;94896.25;4972009;28;20592;-72
2022/09/14 09:11:45;;;;;;;6.22;3.95;;;;;;;19.41;42.84;94898.25;4972810;28;20447;-70
2022/09/14 09:14:34;;;;;;;4.88;4.13;;;;;;;19.34;42.86;94892.94;4969792;28;20232;-69
2022/09/14 09:17:10;;;;;;;5.85;3.92;;;;;;;19.64;42.57;94895.09;4986280;28;20227;-69
2022/09/14 09:19:58;;;;;;;6.55;4.03;;;;;;;19.83;42.51;94894.22;4982491;28;20235;-71
2022/09/14 09:22:26;;;;;;;6.03;3.97;;;;;;;20.00;41.83;94894.56;4982449;28;20228;-70
2022/09/14 09:24:54;;;;;;;4.50;3.88;;;;;;;20.11;41.99;94883.22;4973062;28;20363;-70
2022/09/14 09:27:21;;;;;;;8.02;3.83;;;;;;;20.24;41.53;94888.47;4972335;28;20281;-72
2022/09/14 09:29:47;;;;;;;4.60;3.83;;;;;;;20.28;40.95;94887.00;4972325;28;20321;-72
2022/09/14 09:32:22;;;;;;;10.73;4.15;;;;;;;20.36;41.12;94877.09;4975525;28;20275;-72
2022/09/14 09:34:47;;;;;;;6.85;3.72;;;;;;;20.57;40.64;94881.31;4968493;28;20230;-72
2022/09/14 09:37:20;;;;;;;5.53;3.90;;;;;;;20.74;40.18;94879.72;4973949;28;20227;-72
2022/09/14 09:39:46;;;;;;;7.07;4.28;;;;;;;20.79;40.24;94884.41;5000931;28;20246;-72
2022/09/14 09:42:21;;;;;;;8.35;4.00;;;;;;;20.92;40.85;94882.44;5008633;28;20744;-72
2022/09/14 09:44:55;;;;;;;5.38;3.67;;;;;;;21.17;40.33;94884.28;5024018;28;20283;-71
2022/09/14 09:47:36;;;;;;;8.75;3.80;;;;;;;21.34;39.32;94881.84;5008270;28;20231;-72
2022/09/14 09:50:17;;;;;;;6.70;3.53;;;;;;;21.45;38.61;94881.13;4997144;28;20278;-67
2022/09/14 09:52:58;;;;;;;3.92;3.42;;;;;;;21.36;38.92;94866.41;5005207;28;20254;-72
2022/09/14 09:55:36;;;;;;;5.50;3.67;;;;;;;21.32;38.58;94863.34;5003642;28;20234;-71
2022/09/14 09:58:29;;;;;;;5.47;3.58;;;;;;;21.55;39.30;94865.38;5008928;28;20293;-72
2022/09/14 10:01:05;;;;;;;6.68;4.55;;;;;;;21.74;39.42;94868.06;5007729;28;20234;-72
2022/09/14 10:03:37;;;;;;;7.65;4.45;;;;;;;21.85;39.11;94856.59;5008157;28;20855;-72
2022/09/14 10:06:08;;;;;;;4.95;3.70;;;;;;;22.09;39.27;94856.69;5007357;28;20210;-72
2022/09/14 10:08:41;;;;;;;6.55;4.40;;;;;;;22.39;38.57;94859.38;5006389;28;20615;-72
2022/09/14 10:11:30;;;;;;;6.00;4.07;;;;;;;22.46;37.78;94847.50;5004579;28;20751;-70
2022/09/14 10:13:56;;;;;;;7.80;3.85;;;;;;;22.54;37.23;94845.56;5009353;28;21278;-70
2022/09/14 10:16:24;;;;;;;5.22;4.05;;;;;;;22.66;36.91;94838.31;5008883;28;20630;-67
2022/09/14 10:18:51;;;;;;;6.10;4.50;;;;;;;22.85;36.66;94845.25;5004788;28;20314;-70
2022/09/14 10:21:22;;;;;;;5.45;3.95;;;;;;;22.76;36.06;94830.53;5018749;28;20215;-67
2022/09/14 10:24:04;;;;;;;6.43;4.78;;;;;;;22.87;37.19;94835.06;4995905;28;20214;-67
2022/09/14 10:26:34;;;;;;;8.52;4.90;;;;;;;22.82;35.60;94832.28;4984367;28;20266;-71
2022/09/14 10:29:34;;;;;;;7.70;4.10;;;;;;;22.97;35.13;94833.72;4991903;28;20615;-71
2022/09/14 10:32:16;;;;;;;7.45;3.78;;;;;;;23.06;34.32;94826.94;5000202;28;20843;-73
2022/09/14 10:34:42;;;;;;;6.65;3.92;;;;;;;23.08;35.43;94827.53;4997792;28;20226;-73
2022/09/14 10:37:19;;;;;;;4.78;3.65;;;;;;;23.40;35.59;94827.97;5006561;28;20218;-67
2022/09/14 10:39:58;;;;;;;7.55;4.40;;;;;;;23.52;35.02;94819.88;5000127;28;20222;-67
2022/09/14 10:42:45;;;;;;;9.50;4.32;;;;;;;23.76;34.93;94820.66;4996895;28;20964;-67
2022/09/14 10:45:26;;;;;;;8.90;4.30;;;;;;;23.97;34.84;94827.25;5003476;28;20211;-71
2022/09/14 10:48:01;;;;;;;10.52;4.22;;;;;;;24.16;34.24;94822.47;5006639;28;20575;-72
2022/09/14 10:50:32;;;;;;;8.98;3.85;;;;;;;24.23;33.80;94822.34;5008884;28;20256;-71
2022/09/14 10:53:27;;;;;;;9.15;4.10;;;;;;;24.34;32.81;94818.78;5003466;28;20227;-72
2022/09/14 10:56:09;;;;;;;5.20;3.55;;;;;;;24.52;32.80;94815.91;5007231;28;20302;-73
2022/09/14 10:58:46;;;;;;;3.55;3.17;;;;;;;24.48;31.67;94812.06;5000853;28;20222;-72
2022/09/14 11:01:24;;;;;;;6.80;3.60;;;;;;;24.56;31.43;94802.78;5007673;28;20230;-72
2022/09/14 11:03:58;;;;;;;4.97;3.60;;;;;;;24.81;31.32;94797.81;4998113;28;20241;-72
2022/09/14 11:07:18;;;;;;;5.25;2.83;;;;;;;24.87;30.63;94798.69;5004885;28;20237;-72
2022/09/14 11:09:53;;;;;;;7.65;3.60;;;;;;;24.83;30.32;94794.84;4956043;28;20610;-72
2022/09/14 11:12:25;;;;;;;4.93;3.53;;;;;;;24.87;31.35;94794.13;4952207;28;21103;-71
2022/09/14 11:15:17;;;;;;;7.78;4.13;;;;;;;25.13;31.52;94799.03;4962989;28;20216;-72
2022/09/14 11:17:58;;;;;;;7.00;4.00;;;;;;;25.36;31.40;94789.97;4949666;28;20675;-72
2022/09/14 11:20:45;;;;;;;5.25;3.08;;;;;;;25.52;30.98;94800.69;4951053;28;20239;-67
2022/09/14 11:23:59;;;;;;;4.32;3.15;;;;;;;25.70;30.66;94810.31;4952214;28;20451;-67
2022/09/14 11:26:38;;;;;;;9.18;3.40;;;;;;;25.60;29.76;94798.63;4874221;29;20923;-67
2022/09/14 11:29:11;;;;;;;5.30;2.63;;;;;;;25.84;28.83;94796.50;4872391;29;20235;-71
2022/09/14 11:31:48;;;;;;;1.83;1.73;;;;;;;26.07;26.59;94792.72;4851743;29;20232;-71
2022/09/14 11:34:34;;;;;;;1.40;1.30;;;;;;;26.12;24.88;94788.19;4854397;29;20239;-72
2022/09/14 11:37:23;;;;;;;1.58;1.48;;;;;;;26.25;24.76;94784.28;4871198;29;20620;-72
2022/09/14 11:40:08;;;;;;;2.97;1.80;;;;;;;26.50;24.61;94770.19;4853166;29;20293;-67
2022/09/14 11:42:59;;;;;;;5.75;1.58;;;;;;;26.58;23.48;94763.56;4872621;29;20219;-67
2022/09/14 11:45:44;;;;;;;1.65;1.48;;;;;;;26.70;23.79;94758.75;4888775;29;20310;-71
2022/09/14 11:48:24;;;;;;;2.25;1.42;;;;;;;26.90;24.09;94754.59;4888553;29;20218;-70
2022/09/14 11:51:05;;;;;;;2.95;1.58;;;;;;;26.93;24.08;94764.88;4889394;29;20230;-70